createdAt,value
2022-09-15T00:00:59.265Z,94729.22
2022-09-15T00:03:25.911Z,94730.19
2022-09-15T00:05:55.710Z,94713.41
2022-09-15T00:08:23.272Z,94704.53
2022-09-15T00:11:19.297Z,94715.66
2022-09-15T00:13:47.188Z,94710.97
2022-09-15T00:16:42.999Z,94708.38
2022-09-15T00:26:37.374Z,94697.00
2022-09-15T00:33:13.339Z,94690.72
2022-09-15T00:35:44.937Z,94686.13
2022-09-15T00:38:15.498Z,94677.19
2022-09-15T00:47:19.685Z,94662.53
2022-09-15T00:49:55.852Z,94676.72
2022-09-15T00:57:07.193Z,94687.03
2022-09-15T01:07:02.383Z,94684.06
2022-09-15T01:10:02.130Z,94675.03
2022-09-15T01:12:28.752Z,94686.97
2022-09-15T01:14:55.443Z,94686.06
2022-09-15T01:17:52.046Z,94679.22
2022-09-15T01:20:37.253Z,94678.09
2022-09-15T01:23:28.533Z,94681.44
2022-09-15T01:37:30.901Z,94656.81
2022-09-15T01:40:08.614Z,94651.19
2022-09-15T01:46:12.337Z,94657.63
2022-09-15T01:49:20.988Z,94644.38
2022-09-15T01:52:06.990Z,94643.50
2022-09-15T01:54:56.336Z,94631.38
2022-09-15T01:57:29.124Z,94631.28
2022-09-15T01:59:56.630Z,94629.78
2022-09-15T02:02:42.836Z,94627.75
2022-09-15T02:05:40.963Z,94614.47
2022-09-15T02:12:27.191Z,94611.78
2022-09-15T02:14:59.246Z,94611.69
2022-09-15T02:18:25.819Z,94615.94
2022-09-15T02:21:59.616Z,94613.34
2022-09-15T02:24:36.982Z,94607.31
2022-09-15T02:27:37.363Z,94610.38
2022-09-15T02:33:57.357Z,94610.88
2022-09-15T02:39:39.353Z,94613.66
2022-09-15T02:42:25.642Z,94611.00
2022-09-15T02:45:20.364Z,94607.75
2022-09-15T02:47:47.187Z,94601.19
2022-09-15T02:50:23.363Z,94600.25
2022-09-15T02:56:32.493Z,94607.88
2022-09-15T02:59:08.642Z,94614.06
2022-09-15T03:01:35.545Z,94613.53
2022-09-15T03:04:04.187Z,94601.81
2022-09-15T03:06:31.663Z,94606.19
2022-09-15T03:08:59.402Z,94601.34
2022-09-15T03:11:28.307Z,94600.84
2022-09-15T03:14:03.284Z,94602.03
2022-09-15T03:16:32.871Z,94593.09
2022-09-15T03:19:01.316Z,94594.84
2022-09-15T03:21:29.974Z,94594.50
2022-09-15T03:24:14.650Z,94592.22
2022-09-15T03:27:07.521Z,94586.16
2022-09-15T03:34:13.683Z,94586.63
2022-09-15T03:45:59.906Z,94581.63
2022-09-15T04:00:06.845Z,94570.75
2022-09-15T04:03:59.323Z,94578.00
2022-09-15T04:06:27.120Z,94585.69
2022-09-15T04:09:06.182Z,94579.31
2022-09-15T04:15:30.005Z,94572.66
2022-09-15T04:18:34.051Z,94577.81
2022-09-15T04:25:22.129Z,94575.56
2022-09-15T04:34:49.022Z,94562.41
2022-09-15T04:37:32.276Z,94560.75
2022-09-15T04:43:54.295Z,94547.72
2022-09-15T04:46:54.439Z,94538.31
2022-09-15T04:49:35.930Z,94547.16
2022-09-15T04:52:06.626Z,94544.44
2022-09-15T04:54:37.829Z,94537.63
2022-09-15T04:57:04.570Z,94539.47
2022-09-15T04:59:37.589Z,94535.16
2022-09-15T05:05:38.677Z,94536.75
2022-09-15T05:08:06.357Z,94528.03
2022-09-15T05:10:48.249Z,94529.31
2022-09-15T05:13:35.827Z,94527.66
2022-09-15T05:16:10.641Z,94524.75
2022-09-15T05:19:23.315Z,94526.03
2022-09-15T05:26:07.302Z,94536.50
2022-09-15T05:29:18.014Z,94539.88
2022-09-15T05:32:36.281Z,94542.53
2022-09-15T05:38:53.873Z,94553.22
2022-09-15T05:41:48.824Z,94551.22
2022-09-15T05:44:15.736Z,94561.00
2022-09-15T05:50:24.870Z,94556.03
2022-09-15T06:02:58.964Z,94568.97
2022-09-15T06:05:44.436Z,94583.41
2022-09-15T06:08:34.004Z,94601.06
2022-09-15T06:11:26.728Z,94612.41
2022-09-15T06:13:53.441Z,94614.06
2022-09-15T06:16:38.491Z,94613.00
2022-09-15T06:19:13.705Z,94611.53
2022-09-15T06:22:12.886Z,94617.84
2022-09-15T06:24:41.223Z,94622.84
2022-09-15T06:27:07.876Z,94621.38
2022-09-15T06:33:28.447Z,94631.00
2022-09-15T06:35:55.051Z,94631.28
2022-09-15T06:38:22.233Z,94631.28
2022-09-15T06:40:59.614Z,94633.53
2022-09-15T06:43:26.779Z,94634.09
2022-09-15T06:45:53.506Z,94635.31
2022-09-15T06:48:24.688Z,94650.16
2022-09-15T06:50:55.142Z,94647.78
2022-09-15T06:53:22.399Z,94647.53
2022-09-15T06:55:51.655Z,94656.72
2022-09-15T06:58:18.365Z,94650.63
2022-09-15T07:01:22.789Z,94648.91
2022-09-15T07:08:26.817Z,94652.84
2022-09-15T07:10:56.437Z,94653.31
2022-09-15T07:13:24.728Z,94659.13
2022-09-15T07:15:54.336Z,94659.25
2022-09-15T07:18:21.933Z,94659.84
2022-09-15T07:20:49.286Z,94665.88
2022-09-15T07:23:16.580Z,94663.94
2022-09-15T07:25:43.747Z,94663.84
2022-09-15T07:28:14.229Z,94650.31
2022-09-15T07:30:42.738Z,94656.00
2022-09-15T07:33:14.579Z,94649.09
2022-09-15T07:35:43.291Z,94651.44
2022-09-15T07:38:10.212Z,94655.84
2022-09-15T07:40:38.082Z,94656.25
2022-09-15T07:43:06.547Z,94663.84
2022-09-15T07:45:34.583Z,94674.13
2022-09-15T07:48:01.490Z,94671.13
2022-09-15T07:50:28.097Z,94661.53
2022-09-15T07:52:57.946Z,94665.00
2022-09-15T07:55:24.617Z,94676.84
2022-09-15T07:58:01.565Z,94674.91
2022-09-15T08:00:28.294Z,94669.44
2022-09-15T08:02:56.235Z,94676.13
2022-09-15T08:05:24.214Z,94681.72
2022-09-15T08:07:50.840Z,94688.91
2022-09-15T08:10:17.647Z,94689.19
2022-09-15T08:12:44.235Z,94684.13
2022-09-15T08:15:10.896Z,94682.84
2022-09-15T08:17:37.537Z,94689.00
2022-09-15T08:20:04.575Z,94689.97
2022-09-15T08:22:31.235Z,94698.13
2022-09-15T08:24:57.824Z,94705.53
2022-09-15T08:27:24.507Z,94703.06
2022-09-15T08:29:51.494Z,94706.13
2022-09-15T08:32:18.099Z,94711.06
2022-09-15T08:34:44.676Z,94702.19
2022-09-15T08:37:11.531Z,94705.03
2022-09-15T08:39:38.196Z,94707.47
2022-09-15T08:42:06.055Z,94698.81
2022-09-15T08:44:44.439Z,94701.66
2022-09-15T08:47:31.691Z,94703.50
2022-09-15T08:50:27.863Z,94700.28
2022-09-15T08:53:03.137Z,94692.19
2022-09-15T08:55:48.135Z,94697.72
2022-09-15T08:58:18.924Z,94697.63
2022-09-15T09:00:48.530Z,94702.75
2022-09-15T09:03:42.416Z,94698.59
2022-09-15T09:06:09.034Z,94699.03
2022-09-15T09:08:47.735Z,94711.50
2022-09-15T09:11:40.808Z,94708.25
2022-09-15T09:14:19.542Z,94705.75
2022-09-15T09:16:55.060Z,94705.50
2022-09-15T09:19:21.622Z,94708.69
2022-09-15T09:22:14.796Z,94715.78
2022-09-15T09:24:50.149Z,94718.69
2022-09-15T09:27:22.146Z,94713.19
2022-09-15T09:29:57.697Z,94711.94
2022-09-15T09:32:27.099Z,94711.69
2022-09-15T09:35:24.623Z,94718.31
2022-09-15T09:37:53.338Z,94716.94
2022-09-15T09:40:21.054Z,94715.81
2022-09-15T09:42:48.600Z,94721.06
2022-09-15T09:45:17.935Z,94722.00
2022-09-15T09:47:44.733Z,94715.00
2022-09-15T09:50:40.863Z,94716.00
2022-09-15T09:53:33.957Z,94703.91
2022-09-15T09:56:26.736Z,94708.47
2022-09-15T09:58:54.824Z,94702.56
2022-09-15T10:01:25.083Z,94701.59
2022-09-15T10:04:17.859Z,94696.84
2022-09-15T10:06:46.566Z,94693.56
2022-09-15T10:09:18.030Z,94696.47
2022-09-15T10:11:48.472Z,94684.41
2022-09-15T10:14:35.543Z,94685.94
2022-09-15T10:17:21.901Z,94686.56
2022-09-15T10:19:54.827Z,94697.16
2022-09-15T10:22:35.408Z,94693.28
2022-09-15T10:25:21.761Z,94685.53
2022-09-15T10:28:10.346Z,94689.84
2022-09-15T10:30:37.591Z,94697.41
2022-09-15T10:33:25.631Z,94693.44
2022-09-15T10:35:55.347Z,94696.81
2022-09-15T10:38:40.077Z,94688.53
2022-09-15T10:41:33.634Z,94680.34
2022-09-15T10:44:32.072Z,94686.31
2022-09-15T10:47:26.072Z,94673.66
2022-09-15T10:50:25.732Z,94669.25
2022-09-15T10:53:16.744Z,94679.94
2022-09-15T10:56:04.921Z,94678.16
2022-09-15T10:59:09.328Z,94677.16
2022-09-15T11:02:07.530Z,94681.34
2022-09-15T11:04:46.478Z,94684.44
2022-09-15T11:07:39.520Z,94680.72
2022-09-15T11:10:16.613Z,94687.13
2022-09-15T11:13:13.227Z,94685.25
2022-09-15T11:16:04.637Z,94673.72
2022-09-15T11:19:26.855Z,94672.19
2022-09-15T11:22:03.134Z,94670.44
2022-09-15T11:24:50.555Z,94675.41
2022-09-15T11:27:35.381Z,94674.50
2022-09-15T11:30:13.851Z,94674.75
2022-09-15T11:33:02.831Z,94671.88
2022-09-15T11:35:32.549Z,94677.47
2022-09-15T11:38:19.295Z,94670.06
2022-09-15T11:41:02.634Z,94665.53
2022-09-15T11:43:29.282Z,94666.16
2022-09-15T11:45:59.277Z,94669.38
2022-09-15T11:48:45.329Z,94666.97
2022-09-15T11:51:16.399Z,94665.44
2022-09-15T11:54:02.651Z,94663.09
2022-09-15T11:56:46.428Z,94676.22
2022-09-15T11:59:18.763Z,94668.00
2022-09-15T12:02:11.289Z,94673.16
2022-09-15T12:04:55.498Z,94666.22
2022-09-15T12:07:31.118Z,94665.16
2022-09-15T12:10:14.034Z,94663.06
2022-09-15T12:12:44.342Z,94669.28
2022-09-15T12:15:18.054Z,94665.09
2022-09-15T12:17:53.699Z,94663.69
2022-09-15T12:20:46.729Z,94672.41
2022-09-15T12:26:54.589Z,94681.06
2022-09-15T12:29:27.173Z,94676.06
2022-09-15T12:32:19.959Z,94682.44
2022-09-15T12:34:57.462Z,94692.47
2022-09-15T12:37:29.807Z,94690.97
2022-09-15T12:39:56.784Z,94703.97
2022-09-15T12:42:27.697Z,94708.19
2022-09-15T12:45:00.057Z,94699.22
2022-09-15T12:47:38.770Z,94699.59
2022-09-15T12:50:30.731Z,94700.91
2022-09-15T12:53:02.235Z,94705.31
2022-09-15T12:55:37.691Z,94702.94
2022-09-15T12:58:18.210Z,94702.47
2022-09-15T13:01:13.870Z,94692.13
2022-09-15T13:06:10.298Z,94700.91
2022-09-15T13:08:36.874Z,94691.97
2022-09-15T13:11:11.613Z,94688.19
2022-09-15T13:14:02.267Z,94689.28
2022-09-15T13:17:07.651Z,94681.72
2022-09-15T13:19:34.294Z,94678.66
2022-09-15T13:22:12.164Z,94666.97
2022-09-15T13:25:00.772Z,94665.44
2022-09-15T13:27:38.333Z,94666.53
2022-09-15T13:30:26.312Z,94663.19
2022-09-15T13:33:17.712Z,94653.09
2022-09-15T13:36:15.061Z,94663.50
2022-09-15T13:39:03.039Z,94652.19
2022-09-15T13:42:01.777Z,94650.88
2022-09-15T13:45:06.390Z,94652.97
2022-09-15T13:47:51.102Z,94652.38
2022-09-15T13:50:40.328Z,94648.34
2022-09-15T13:53:36.853Z,94642.81
2022-09-15T13:56:09.789Z,94634.13
2022-09-15T13:58:58.286Z,94627.34
2022-09-15T14:01:26.592Z,94634.97
2022-09-15T14:03:59.166Z,94618.75
2022-09-15T14:06:38.787Z,94621.28
2022-09-15T14:09:25.817Z,94614.25
2022-09-15T14:11:57.873Z,94610.16
2022-09-15T14:14:33.077Z,94610.38
2022-09-15T14:16:59.848Z,94605.75
2022-09-15T14:19:38.307Z,94602.91
2022-09-15T14:22:20.025Z,94598.31
2022-09-15T14:24:47.440Z,94593.22
2022-09-15T14:27:22.503Z,94590.66
2022-09-15T14:29:52.420Z,94594.44
2022-09-15T14:32:19.110Z,94593.50
2022-09-15T14:40:29.259Z,94584.69
2022-09-15T14:43:31.155Z,94588.13
2022-09-15T14:46:10.344Z,94586.72
2022-09-15T14:48:37.007Z,94593.47
2022-09-15T14:51:25.527Z,94592.78
2022-09-15T14:53:57.857Z,94594.69
2022-09-15T14:56:32.973Z,94588.13
2022-09-15T14:59:06.586Z,94587.31
2022-09-15T15:01:52.309Z,94579.97
2022-09-15T15:04:39.989Z,94587.50
2022-09-15T15:07:31.688Z,94587.91
2022-09-15T15:10:03.951Z,94591.34
2022-09-15T15:12:32.128Z,94592.09
2022-09-15T15:15:00.244Z,94591.66
2022-09-15T15:17:37.213Z,94597.91
2022-09-15T15:20:09.851Z,94594.66
2022-09-15T15:22:38.511Z,94594.00
2022-09-15T15:25:22.638Z,94602.53
2022-09-15T15:27:57.229Z,94610.28
2022-09-15T15:30:28.784Z,94618.44
2022-09-15T15:33:19.691Z,94624.09
2022-09-15T15:35:59.853Z,94624.50
2022-09-15T15:38:28.580Z,94620.72
2022-09-15T15:41:07.381Z,94619.94
2022-09-15T15:43:35.027Z,94620.47
2022-09-15T15:46:06.002Z,94628.59
2022-09-15T15:48:38.209Z,94628.59
2022-09-15T15:51:06.663Z,94633.31
2022-09-15T15:53:35.367Z,94623.91
2022-09-15T15:56:02.162Z,94621.03
2022-09-15T15:58:28.826Z,94619.81
2022-09-15T16:00:57.932Z,94625.03
2022-09-15T16:03:25.442Z,94628.53
2022-09-15T16:05:59.416Z,94636.69
2022-09-15T16:08:35.312Z,94635.50
2022-09-15T16:11:03.106Z,94632.53
2022-09-15T16:13:30.573Z,94623.16
2022-09-15T16:15:59.613Z,94633.88
2022-09-15T16:18:27.632Z,94626.34
2022-09-15T16:20:54.572Z,94625.34
2022-09-15T16:23:23.166Z,94626.53
2022-09-15T16:26:02.807Z,94623.53
2022-09-15T16:28:29.971Z,94639.88
2022-09-15T16:30:57.511Z,94635.69
2022-09-15T16:33:27.294Z,94643.53
2022-09-15T16:35:57.127Z,94636.31
2022-09-15T16:38:24.054Z,94636.25
2022-09-15T16:40:51.810Z,94644.19
2022-09-15T16:43:21.449Z,94641.50
2022-09-15T16:45:49.628Z,94662.56
2022-09-15T16:48:16.707Z,94666.69
2022-09-15T16:51:01.691Z,94669.72
2022-09-15T16:53:32.222Z,94679.34
2022-09-15T16:55:58.887Z,94679.81
2022-09-15T16:58:34.501Z,94680.69
2022-09-15T17:01:03.931Z,94678.34
2022-09-15T17:03:30.853Z,94683.56
2022-09-15T17:06:00.722Z,94690.53
2022-09-15T17:08:30.180Z,94686.41
2022-09-15T17:11:00.094Z,94688.94
2022-09-15T17:13:31.996Z,94689.44
2022-09-15T17:16:02.709Z,94687.88
2022-09-15T17:18:29.718Z,94701.13
2022-09-15T17:20:56.721Z,94698.88
2022-09-15T17:23:24.459Z,94699.59
2022-09-15T17:25:53.284Z,94696.09
2022-09-15T17:28:26.093Z,94700.75
2022-09-15T17:31:00.667Z,94698.38
2022-09-15T17:33:29.685Z,94692.78
2022-09-15T17:35:57.208Z,94688.03
2022-09-15T17:38:23.844Z,94696.44
2022-09-15T17:40:51.977Z,94688.28
2022-09-15T17:43:21.042Z,94695.34
2022-09-15T17:45:49.274Z,94698.53
2022-09-15T17:48:16.817Z,94700.00
2022-09-15T17:50:44.178Z,94696.56
2022-09-15T17:53:19.328Z,94704.69
2022-09-15T17:55:45.879Z,94707.28
2022-09-15T17:58:12.480Z,94709.72
2022-09-15T18:00:41.405Z,94715.16
2022-09-15T18:03:14.367Z,94709.09
2022-09-15T18:05:41.237Z,94723.25
2022-09-15T18:08:09.863Z,94715.16
2022-09-15T18:10:36.947Z,94723.78
2022-09-15T18:13:05.445Z,94722.31
2022-09-15T18:15:34.590Z,94721.13
2022-09-15T18:18:04.133Z,94718.69
2022-09-15T18:20:32.901Z,94726.25
2022-09-15T18:22:59.553Z,94731.66
2022-09-15T18:25:28.961Z,94716.47
2022-09-15T18:27:56.612Z,94728.47
2022-09-15T18:30:25.692Z,94722.25
2022-09-15T18:32:52.441Z,94726.88
2022-09-15T18:35:21.098Z,94728.38
2022-09-15T18:37:53.603Z,94727.88
2022-09-15T18:40:47.089Z,94726.50
2022-09-15T18:43:13.953Z,94727.94
2022-09-15T18:45:41.469Z,94733.56
2022-09-15T18:48:12.692Z,94734.63
2022-09-15T18:50:41.329Z,94739.53
2022-09-15T18:53:08.737Z,94743.69
2022-09-15T18:55:35.715Z,94750.47
2022-09-15T18:58:02.833Z,94746.88
2022-09-15T19:00:30.239Z,94757.25
2022-09-15T19:03:01.413Z,94744.59
2022-09-15T19:05:30.145Z,94756.00
2022-09-15T19:07:57.590Z,94756.50
2022-09-15T19:10:26.817Z,94757.56
2022-09-15T19:12:56.964Z,94762.41
2022-09-15T19:15:25.979Z,94766.72
2022-09-15T19:17:52.666Z,94759.63
2022-09-15T19:20:19.394Z,94762.41
2022-09-15T19:22:46.238Z,94761.75
2022-09-15T19:25:14.087Z,94759.50
2022-09-15T19:27:41.103Z,94763.59
2022-09-15T19:30:09.736Z,94758.47
2022-09-15T19:32:36.465Z,94765.53
2022-09-15T19:35:09.673Z,94770.09
2022-09-15T19:37:37.831Z,94759.03
2022-09-15T19:40:07.618Z,94759.38
2022-09-15T19:42:34.368Z,94755.13
2022-09-15T19:45:01.080Z,94764.50
2022-09-15T19:47:27.798Z,94770.09
2022-09-15T19:49:54.662Z,94759.03
2022-09-15T19:52:21.492Z,94766.31
2022-09-15T19:54:48.250Z,94762.50
2022-09-15T19:57:15.448Z,94762.41
2022-09-15T20:00:12.427Z,94765.84
2022-09-15T20:02:56.056Z,94763.91
2022-09-15T20:05:22.730Z,94771.56
2022-09-15T20:07:49.529Z,94764.69
2022-09-15T20:10:18.324Z,94766.22
2022-09-15T20:12:44.994Z,94763.94
2022-09-15T20:15:11.656Z,94773.06
2022-09-15T20:17:38.369Z,94773.75
2022-09-15T20:20:05.453Z,94781.16
2022-09-15T20:22:33.929Z,94775.72
2022-09-15T20:25:00.593Z,94786.09
2022-09-15T20:27:27.209Z,94787.78
2022-09-15T20:29:53.911Z,94790.47
2022-09-15T20:32:22.880Z,94786.97
2022-09-15T20:34:56.196Z,94793.03
2022-09-15T20:37:22.870Z,94789.13
2022-09-15T20:39:49.593Z,94787.38
2022-09-15T20:42:16.488Z,94790.47
2022-09-15T20:44:45.644Z,94795.13
2022-09-15T20:47:12.248Z,94791.38
2022-09-15T20:49:38.846Z,94792.72
2022-09-15T20:52:08.259Z,94787.41
2022-09-15T20:54:35.066Z,94799.13
2022-09-15T20:57:01.947Z,94796.03
2022-09-15T20:59:30.909Z,94797.00
2022-09-15T21:01:59.174Z,94804.44
2022-09-15T21:04:25.865Z,94802.75
2022-09-15T21:06:52.458Z,94805.69
2022-09-15T21:09:21.398Z,94803.81
2022-09-15T21:11:52.730Z,94803.97
2022-09-15T21:14:22.888Z,94802.28
2022-09-15T21:16:51.896Z,94807.63
2022-09-15T21:19:18.560Z,94806.44
2022-09-15T21:21:45.200Z,94804.94
2022-09-15T21:24:11.875Z,94803.41
2022-09-15T21:26:41.150Z,94801.16
2022-09-15T21:29:08.360Z,94800.81
2022-09-15T21:31:35.016Z,94806.41
2022-09-15T21:34:01.667Z,94800.09
2022-09-15T21:36:30.555Z,94803.81
2022-09-15T21:38:58.744Z,94801.72
2022-09-15T21:41:28.043Z,94800.91
2022-09-15T21:43:55.441Z,94797.06
2022-09-15T21:46:24.779Z,94797.59
2022-09-15T21:48:51.627Z,94796.72
2022-09-15T21:51:24.631Z,94792.72
2022-09-15T21:53:53.998Z,94789.84
2022-09-15T21:56:22.690Z,94787.84
2022-09-15T21:58:49.406Z,94786.63
2022-09-15T22:01:21.600Z,94793.88
2022-09-15T22:03:49.784Z,94786.66
2022-09-15T22:06:16.455Z,94797.16
2022-09-15T22:08:44.113Z,94789.84
2022-09-15T22:11:11.047Z,94793.28
2022-09-15T22:13:41.490Z,94798.75
2022-09-15T22:16:12.690Z,94798.41
2022-09-15T22:18:41.175Z,94796.72
2022-09-15T22:21:14.833Z,94798.56
2022-09-15T22:23:43.762Z,94804.22
2022-09-15T22:26:14.432Z,94792.47
2022-09-15T22:28:41.453Z,94796.69
2022-09-15T22:31:10.975Z,94791.09
2022-09-15T22:33:39.111Z,94787.91
2022-09-15T22:36:09.763Z,94790.97
2022-09-15T22:38:36.491Z,94793.84
2022-09-15T22:41:06.529Z,94793.19
2022-09-15T22:43:33.200Z,94797.16
2022-09-15T22:45:59.849Z,94792.91
2022-09-15T22:48:26.602Z,94790.94
2022-09-15T22:50:53.759Z,94794.41
2022-09-15T22:53:20.341Z,94788.94
2022-09-15T22:55:47.000Z,94788.72
2022-09-15T22:58:13.705Z,94796.72
2022-09-15T23:00:40.369Z,94794.56
2022-09-15T23:03:08.499Z,94792.94
2022-09-15T23:05:35.262Z,94790.31
2022-09-15T23:08:02.386Z,94786.06
2022-09-15T23:10:30.771Z,94783.88
2022-09-15T23:13:00.500Z,94785.38
2022-09-15T23:15:27.076Z,94783.88
2022-09-15T23:17:53.670Z,94782.31
2022-09-15T23:20:20.273Z,94781.00
2022-09-15T23:22:46.907Z,94784.19
2022-09-15T23:25:13.536Z,94778.97
2022-09-15T23:27:40.179Z,94780.38
2022-09-15T23:30:07.250Z,94772.03
2022-09-15T23:32:33.911Z,94771.84
2022-09-15T23:35:00.500Z,94763.94
2022-09-15T23:37:27.179Z,94772.72
2022-09-15T23:39:53.820Z,94776.22
2022-09-15T23:42:20.442Z,94769.44
2022-09-15T23:44:47.361Z,94759.44
2022-09-15T23:47:14.014Z,94767.94
2022-09-15T23:49:40.623Z,94768.59
2022-09-15T23:52:07.260Z,94759.94
2022-09-15T23:54:33.888Z,94767.66
2022-09-15T23:57:00.478Z,94763.66
2022-09-15T23:59:27.118Z,94759.66
